Time;durP1;ratioP1;P1;durP2;ratioP2;P2;SDS_P1;SDS_P2;PMS_P1;PMS_P2;Temp;Humidity;BMP_temperature;BMP_pressure;BME280_temperature;BME280_humidity;BME280_pressure;Samples;Min_cycle;Max_cycle;Signal;HPM_P1;HPM_P2
2021/08/17 00:01:16;;;;;;;4.50;3.75;;;13.50;99.90;;;;;;1968132;73;21052;-75
2021/08/17 00:03:42;;;;;;;6.15;4.72;;;13.40;99.90;;;;;;1968116;73;21134;-76
2021/08/17 00:06:08;;;;;;;3.77;3.33;;;13.40;99.90;;;;;;1968117;73;21057;-76
2021/08/17 00:08:34;;;;;;;4.67;3.47;;;13.40;99.90;;;;;;1968115;73;21137;-76
2021/08/17 00:11:00;;;;;;;4.87;3.75;;;13.30;99.90;;;;;;1968107;73;21064;-77
2021/08/17 00:13:26;;;;;;;9.85;4.05;;;13.30;99.90;;;;;;1968193;73;21060;-77
2021/08/17 00:15:53;;;;;;;7.20;4.28;;;13.20;99.90;;;;;;1968251;73;21463;-77
2021/08/17 00:18:19;;;;;;;6.67;4.05;;;13.20;99.90;;;;;;1968126;73;21479;-77
2021/08/17 00:20:45;;;;;;;5.10;4.12;;;13.10;99.90;;;;;;1968124;73;21537;-77
2021/08/17 00:23:11;;;;;;;5.33;4.30;;;13.10;99.90;;;;;;1968230;73;21059;-77
2021/08/17 00:25:42;;;;;;;4.72;3.95;;;13.00;99.90;;;;;;1968083;73;21072;-77
2021/08/17 00:28:05;;;;;;;15.83;4.83;;;13.00;99.90;;;;;;1967509;73;21048;-77
2021/08/17 00:30:31;;;;;;;4.95;4.25;;;12.90;99.90;;;;;;1968101;73;21121;-77
2021/08/17 00:32:57;;;;;;;4.83;3.67;;;12.90;99.90;;;;;;1968125;73;21110;-77
2021/08/17 00:35:25;;;;;;;7.72;4.60;;;12.80;99.90;;;;;;1963456;72;21040;-77
2021/08/17 00:37:51;;;;;;;7.22;4.90;;;12.80;99.90;;;;;;1968124;73;21071;-77
2021/08/17 00:40:17;;;;;;;5.12;4.40;;;12.90;99.90;;;;;;1960974;73;21111;-77
2021/08/17 00:42:43;;;;;;;6.65;4.83;;;12.90;99.90;;;;;;1967515;73;21037;-77
2021/08/17 00:45:09;;;;;;;7.67;4.75;;;13.00;99.90;;;;;;1965095;72;21020;-77
2021/08/17 00:47:36;;;;;;;5.00;4.45;;;13.00;99.90;;;;;;1964249;73;21472;-77
2021/08/17 00:50:02;;;;;;;5.87;4.40;;;13.00;99.90;;;;;;1968109;73;21468;-77
2021/08/17 00:52:28;;;;;;;5.83;4.37;;;13.00;99.90;;;;;;1968315;73;21516;-77
2021/08/17 00:54:54;;;;;;;6.42;4.28;;;13.10;99.90;;;;;;1968081;73;21448;-77
2021/08/17 00:57:20;;;;;;;6.95;4.80;;;13.10;99.90;;;;;;1968125;73;21557;-77
2021/08/17 00:59:46;;;;;;;6.90;4.47;;;13.20;99.90;;;;;;1968072;73;21483;-78
2021/08/17 01:02:12;;;;;;;5.17;4.67;;;13.10;99.90;;;;;;1968272;73;21056;-77
2021/08/17 01:04:40;;;;;;;5.75;4.40;;;13.00;99.90;;;;;;1968107;73;21025;-77
2021/08/17 01:07:06;;;;;;;6.85;4.33;;;13.20;99.90;;;;;;1968171;73;21068;-77
2021/08/17 01:09:32;;;;;;;5.65;4.33;;;13.20;99.90;;;;;;1968002;73;21055;-77
2021/08/17 01:11:58;;;;;;;8.38;5.28;;;13.20;99.90;;;;;;1968135;73;21064;-77
2021/08/17 01:14:24;;;;;;;8.00;5.33;;;13.20;99.90;;;;;;1968068;73;21059;-78
2021/08/17 01:16:50;;;;;;;5.67;4.80;;;13.20;99.90;;;;;;1968267;73;21063;-77
2021/08/17 01:19:19;;;;;;;8.20;4.80;;;13.20;99.90;;;;;;1968106;73;21064;-78
2021/08/17 01:21:44;;;;;;;7.33;4.22;;;13.20;99.90;;;;;;1967798;73;21149;-77
2021/08/17 01:24:10;;;;;;;7.62;5.00;;;13.10;99.90;;;;;;1968113;73;21028;-78
2021/08/17 01:26:36;;;;;;;5.58;4.45;;;13.00;99.90;;;;;;1968043;73;21145;-77
2021/08/17 01:29:02;;;;;;;7.72;4.35;;;13.00;99.90;;;;;;1968150;73;21039;-77
2021/08/17 01:31:29;;;;;;;6.47;4.17;;;13.10;99.90;;;;;;1968004;73;21503;-77
2021/08/17 01:33:55;;;;;;;5.92;4.53;;;13.10;99.90;;;;;;1967962;73;21129;-77
2021/08/17 01:36:21;;;;;;;9.43;5.05;;;13.00;99.90;;;;;;1968200;73;21048;-77
2021/08/17 01:38:47;;;;;;;4.97;4.28;;;13.00;99.90;;;;;;1967996;73;21129;-77
2021/08/17 01:41:13;;;;;;;6.00;4.03;;;13.10;99.90;;;;;;1968140;73;21056;-77
2021/08/17 01:43:39;;;;;;;10.23;5.00;;;13.10;99.90;;;;;;1967965;73;21060;-77
2021/08/17 01:46:05;;;;;;;6.33;4.58;;;13.10;99.90;;;;;;1968061;73;21055;-78
2021/08/17 01:48:32;;;;;;;4.95;4.45;;;13.00;99.90;;;;;;1968119;73;21121;-77
2021/08/17 01:50:58;;;;;;;5.10;4.08;;;12.90;99.90;;;;;;1968092;73;21099;-77
2021/08/17 01:53:24;;;;;;;6.30;4.62;;;12.80;99.90;;;;;;1968009;73;21055;-77
2021/08/17 01:55:50;;;;;;;4.50;4.10;;;12.90;99.90;;;;;;1968002;73;21016;-77
2021/08/17 01:58:16;;;;;;;6.90;4.78;;;12.80;99.90;;;;;;1968164;73;21483;-77
2021/08/17 02:00:42;;;;;;;6.55;4.35;;;12.80;99.90;;;;;;1968080;73;21452;-77
2021/08/17 02:03:08;;;;;;;6.08;4.72;;;12.70;99.90;;;;;;1968181;73;21516;-77
2021/08/17 02:05:34;;;;;;;7.72;4.58;;;12.60;99.90;;;;;;1968128;73;21389;-76
2021/08/17 02:08:01;;;;;;;7.08;4.58;;;12.40;99.90;;;;;;1967951;73;21483;-77
2021/08/17 02:10:27;;;;;;;6.87;5.05;;;12.30;99.90;;;;;;1968123;73;21480;-77
2021/08/17 02:12:53;;;;;;;8.60;4.67;;;12.30;99.90;;;;;;1967953;73;21125;-77
2021/08/17 02:15:19;;;;;;;8.60;5.05;;;12.10;99.90;;;;;;1968182;73;21025;-77
2021/08/17 02:17:45;;;;;;;7.92;4.70;;;12.10;99.90;;;;;;1968053;73;21047;-77
2021/08/17 02:20:12;;;;;;;5.37;4.50;;;12.00;99.90;;;;;;1968143;73;21060;-77
2021/08/17 02:22:38;;;;;;;6.80;4.78;;;11.90;99.90;;;;;;1967950;73;21164;-77
2021/08/17 02:25:04;;;;;;;6.25;4.92;;;11.80;99.90;;;;;;1968148;73;21060;-77
2021/08/17 02:27:30;;;;;;;6.25;5.03;;;11.80;99.90;;;;;;1967946;73;21025;-76
2021/08/17 02:29:56;;;;;;;13.58;5.42;;;11.70;99.90;;;;;;1968171;73;21048;-76
2021/08/17 02:32:22;;;;;;;7.22;4.90;;;11.70;99.90;;;;;;1967967;73;21125;-77
2021/08/17 02:34:49;;;;;;;8.55;5.67;;;11.60;99.90;;;;;;1968144;73;21133;-77
2021/08/17 02:37:15;;;;;;;13.20;5.58;;;11.50;99.90;;;;;;1967960;73;21129;-76
2021/08/17 02:39:41;;;;;;;9.95;5.30;;;11.50;99.90;;;;;;1968165;73;21125;-77
2021/08/17 02:42:07;;;;;;;9.60;5.60;;;11.50;99.90;;;;;;1967972;73;21060;-77
2021/08/17 02:44:33;;;;;;;6.75;4.78;;;11.40;99.90;;;;;;1968148;73;21056;-77
2021/08/17 02:46:59;;;;;;;6.30;5.08;;;11.40;99.90;;;;;;1967913;73;21020;-77
2021/08/17 02:49:25;;;;;;;6.20;4.78;;;11.40;99.90;;;;;;1968168;73;21051;-77
2021/08/17 02:51:51;;;;;;;7.72;4.70;;;11.40;99.90;;;;;;1967996;73;21051;-77
2021/08/17 02:54:18;;;;;;;9.43;4.83;;;11.40;99.90;;;;;;1968281;73;21052;-77
2021/08/17 02:56:44;;;;;;;9.88;5.47;;;11.30;99.90;;;;;;1968253;73;20996;-77
2021/08/17 02:59:10;;;;;;;10.00;6.25;;;11.30;99.90;;;;;;1968392;73;21055;-77
2021/08/17 03:01:36;;;;;;;10.08;5.42;;;11.30;99.90;;;;;;1968406;73;21063;-77
2021/08/17 03:04:02;;;;;;;5.95;4.70;;;11.30;99.90;;;;;;1971911;72;21138;-77
2021/08/17 03:06:28;;;;;;;7.22;4.75;;;11.20;99.90;;;;;;1968339;73;21079;-77
2021/08/17 03:08:54;;;;;;;8.50;4.75;;;11.10;99.90;;;;;;1971750;72;21079;-77
2021/08/17 03:11:20;;;;;;;6.83;5.25;;;11.00;99.90;;;;;;1971650;72;21144;-77
2021/08/17 03:13:46;;;;;;;8.03;4.90;;;11.10;99.90;;;;;;1968373;73;21064;-77
2021/08/17 03:16:13;;;;;;;7.87;5.03;;;11.10;99.90;;;;;;1980308;71;21069;-77
2021/08/17 03:18:39;;;;;;;7.50;5.17;;;11.00;99.90;;;;;;1970684;72;21103;-77
2021/08/17 03:21:05;;;;;;;6.62;5.50;;;11.00;99.90;;;;;;1971115;72;21148;-76
2021/08/17 03:23:31;;;;;;;5.53;4.72;;;11.00;99.90;;;;;;1964022;73;21129;-76
2021/08/17 03:25:57;;;;;;;8.60;5.55;;;10.90;99.90;;;;;;1969259;71;21105;-76
2021/08/17 03:28:23;;;;;;;8.50;5.05;;;11.00;99.90;;;;;;1969998;71;21043;-76
2021/08/17 03:30:49;;;;;;;6.45;4.92;;;11.10;99.90;;;;;;1968149;73;21067;-77
2021/08/17 03:33:15;;;;;;;8.30;5.12;;;11.00;99.90;;;;;;1968210;73;21064;-77
2021/08/17 03:35:42;;;;;;;6.42;4.80;;;10.90;99.90;;;;;;1968140;73;21455;-76
2021/08/17 03:38:08;;;;;;;6.95;4.58;;;10.90;99.90;;;;;;1968084;73;21564;-76
2021/08/17 03:40:34;;;;;;;8.23;4.80;;;10.90;99.90;;;;;;1967911;73;21440;-76
2021/08/17 03:43:00;;;;;;;7.33;4.30;;;10.90;99.90;;;;;;1968134;73;21480;-77
2021/08/17 03:45:26;;;;;;;10.93;4.78;;;10.90;99.90;;;;;;1967950;73;21484;-76
2021/08/17 03:47:52;;;;;;;10.40;4.80;;;10.90;99.90;;;;;;1968133;73;21495;-76
2021/08/17 03:50:18;;;;;;;8.65;4.58;;;10.90;99.90;;;;;;1967928;73;21612;-77
2021/08/17 03:52:44;;;;;;;7.45;4.90;;;10.90;99.90;;;;;;1968243;73;21025;-76
2021/08/17 03:55:11;;;;;;;10.23;4.85;;;10.80;99.90;;;;;;1968046;73;21059;-76
2021/08/17 03:57:37;;;;;;;12.82;4.83;;;10.90;99.90;;;;;;1968159;73;21056;-76
2021/08/17 04:00:03;;;;;;;5.33;4.70;;;10.80;99.90;;;;;;1967909;73;21129;-77
2021/08/17 04:02:29;;;;;;;5.25;4.30;;;10.80;99.90;;;;;;1968148;73;21130;-76
2021/08/17 04:04:55;;;;;;;6.97;5.17;;;10.70;99.90;;;;;;1967878;73;21051;-76
2021/08/17 04:07:22;;;;;;;8.48;4.30;;;10.60;99.90;;;;;;1968152;73;21129;-76
2021/08/17 04:09:48;;;;;;;7.62;5.03;;;10.50;99.90;;;;;;1967979;73;21051;-77
2021/08/17 04:12:14;;;;;;;9.60;5.15;;;10.50;99.90;;;;;;1968148;73;21113;-76
2021/08/17 04:14:40;;;;;;;8.75;4.58;;;10.50;99.90;;;;;;1967916;73;21121;-76
2021/08/17 04:17:06;;;;;;;7.12;4.00;;;10.50;99.90;;;;;;1968192;73;21067;-76
2021/08/17 04:19:32;;;;;;;5.05;4.50;;;10.50;99.90;;;;;;1968003;73;21125;-78
2021/08/17 04:21:58;;;;;;;6.22;5.15;;;10.60;99.90;;;;;;1968289;73;21172;-77
2021/08/17 04:24:24;;;;;;;9.30;4.87;;;10.60;99.90;;;;;;1967904;73;21028;-77
2021/08/17 04:26:51;;;;;;;8.33;5.85;;;10.60;99.90;;;;;;1968099;73;21059;-76
2021/08/17 04:29:17;;;;;;;9.53;5.33;;;10.60;99.90;;;;;;1967932;73;21064;-77
2021/08/17 04:31:43;;;;;;;5.83;4.45;;;10.60;99.90;;;;;;1968079;73;21133;-77
2021/08/17 04:34:09;;;;;;;6.95;5.17;;;10.50;99.90;;;;;;1967878;73;21028;-77
2021/08/17 04:36:35;;;;;;;7.45;4.45;;;10.60;99.90;;;;;;1968155;73;21051;-78
2021/08/17 04:39:01;;;;;;;7.62;5.53;;;10.50;99.90;;;;;;1968055;73;21129;-77
2021/08/17 04:41:27;;;;;;;17.40;5.40;;;10.40;99.90;;;;;;1968166;73;21060;-76
2021/08/17 04:43:54;;;;;;;8.83;5.08;;;10.40;99.90;;;;;;1968214;73;21024;-76
2021/08/17 04:46:20;;;;;;;8.25;5.15;;;10.40;99.90;;;;;;1968069;73;21024;-74
2021/08/17 04:48:49;;;;;;;10.70;5.03;;;10.40;99.90;;;;;;1968089;73;21043;-74
2021/08/17 04:51:14;;;;;;;7.00;4.83;;;10.50;99.90;;;;;;1967884;73;21044;-74
2021/08/17 04:53:40;;;;;;;5.95;4.92;;;10.40;99.90;;;;;;1968150;73;21125;-76
2021/08/17 04:56:06;;;;;;;8.20;5.30;;;10.50;99.90;;;;;;1968092;73;21118;-75
2021/08/17 04:58:32;;;;;;;6.65;4.80;;;10.60;99.90;;;;;;1967901;73;21488;-74
2021/08/17 05:00:59;;;;;;;8.05;5.00;;;10.60;99.90;;;;;;1968092;73;21192;-75
2021/08/17 05:03:26;;;;;;;9.40;5.20;;;10.70;99.90;;;;;;1963135;73;21063;-73
2021/08/17 05:05:52;;;;;;;10.60;5.08;;;10.70;99.90;;;;;;1968065;73;21076;-74
2021/08/17 05:08:18;;;;;;;7.95;5.10;;;10.70;99.90;;;;;;1967973;73;21052;-73
2021/08/17 05:10:44;;;;;;;5.35;4.10;;;10.80;99.90;;;;;;1968019;73;21035;-74
2021/08/17 05:13:10;;;;;;;14.87;4.67;;;10.80;99.90;;;;;;1967968;73;21122;-74
2021/08/17 05:15:36;;;;;;;7.08;4.80;;;10.90;99.90;;;;;;1967817;72;21024;-74
2021/08/17 05:18:02;;;;;;;6.67;4.87;;;10.90;99.90;;;;;;1967897;73;21075;-74
2021/08/17 05:20:29;;;;;;;5.72;4.53;;;10.90;99.90;;;;;;1975289;72;21125;-74
2021/08/17 05:22:55;;;;;;;6.92;4.62;;;10.90;99.90;;;;;;1962488;73;21126;-73
2021/08/17 05:25:21;;;;;;;6.87;4.62;;;10.90;99.90;;;;;;1971185;72;21063;-74
2021/08/17 05:27:47;;;;;;;7.05;4.90;;;10.90;99.90;;;;;;1968034;73;21110;-73
2021/08/17 05:30:13;;;;;;;5.40;4.37;;;10.90;99.90;;;;;;1967859;73;21125;-74
2021/08/17 05:32:39;;;;;;;10.45;5.00;;;10.90;99.90;;;;;;1968089;73;21063;-74
2021/08/17 05:35:05;;;;;;;5.15;4.37;;;10.90;99.90;;;;;;1967877;73;21059;-74
2021/08/17 05:37:32;;;;;;;10.60;4.40;;;11.00;99.90;;;;;;1968078;73;21060;-74
2021/08/17 05:39:58;;;;;;;8.98;4.45;;;11.00;99.90;;;;;;1967999;73;21063;-74
2021/08/17 05:42:25;;;;;;;7.25;4.58;;;11.00;99.90;;;;;;1967957;73;21145;-75
2021/08/17 05:44:51;;;;;;;8.53;4.72;;;11.20;99.90;;;;;;1968070;73;21141;-75
2021/08/17 05:47:17;;;;;;;10.13;4.80;;;11.20;99.90;;;;;;1967985;73;21064;-77
2021/08/17 05:49:43;;;;;;;6.20;4.37;;;11.30;99.90;;;;;;1968113;73;21060;-77
2021/08/17 05:52:09;;;;;;;7.20;5.28;;;11.20;99.90;;;;;;1967881;73;21106;-75
2021/08/17 05:54:35;;;;;;;7.00;4.37;;;11.40;99.90;;;;;;1968017;73;21133;-78
2021/08/17 05:57:01;;;;;;;12.13;4.90;;;11.50;99.90;;;;;;1967869;73;21067;-79
2021/08/17 05:59:27;;;;;;;11.08;4.70;;;11.50;99.90;;;;;;1968052;73;21025;-77
2021/08/17 06:01:54;;;;;;;8.33;5.10;;;11.40;99.90;;;;;;1967894;73;21059;-75
2021/08/17 06:04:20;;;;;;;12.65;5.42;;;11.50;99.90;;;;;;1968077;73;21071;-76
2021/08/17 06:06:47;;;;;;;11.48;4.97;;;11.50;99.90;;;;;;1967773;73;21067;-75
2021/08/17 06:09:13;;;;;;;9.03;4.42;;;11.70;99.90;;;;;;1967991;73;21137;-74
2021/08/17 06:11:39;;;;;;;11.55;4.45;;;11.80;99.90;;;;;;1967840;73;21032;-74
2021/08/17 06:14:05;;;;;;;6.20;4.83;;;12.00;99.90;;;;;;1968068;73;21067;-74
2021/08/17 06:16:33;;;;;;;15.43;4.83;;;12.10;99.90;;;;;;1967848;73;21137;-74
2021/08/17 06:18:59;;;;;;;10.20;4.85;;;12.20;99.90;;;;;;1967818;73;21111;-74
2021/08/17 06:21:25;;;;;;;10.20;4.95;;;12.30;99.90;;;;;;1967858;73;21017;-76
2021/08/17 06:23:51;;;;;;;10.08;4.72;;;12.40;99.90;;;;;;1967916;73;21133;-74
2021/08/17 06:26:17;;;;;;;8.65;5.08;;;12.50;99.90;;;;;;1967887;73;21111;-74
2021/08/17 06:28:44;;;;;;;7.00;4.15;;;12.60;99.90;;;;;;1967948;73;21063;-77
2021/08/17 06:31:12;;;;;;;11.12;4.60;;;12.70;99.90;;;;;;1967875;73;21121;-76
2021/08/17 06:33:38;;;;;;;6.37;4.05;;;12.80;99.90;;;;;;1967958;73;21188;-75
2021/08/17 06:36:04;;;;;;;9.05;4.08;;;12.90;99.90;;;;;;1967747;73;21067;-75
2021/08/17 06:38:31;;;;;;;7.05;4.33;;;13.00;99.90;;;;;;1967888;73;21464;-75
2021/08/17 06:40:57;;;;;;;6.08;4.53;;;13.10;99.90;;;;;;1967900;73;21456;-76
2021/08/17 06:43:23;;;;;;;5.95;4.17;;;13.20;99.90;;;;;;1967911;73;21448;-76
2021/08/17 06:45:49;;;;;;;7.55;5.17;;;13.30;99.90;;;;;;1967967;73;21102;-77
2021/08/17 06:48:15;;;;;;;6.95;3.83;;;13.50;99.90;;;;;;1967950;73;21138;-77
2021/08/17 06:50:41;;;;;;;7.72;4.85;;;13.70;99.90;;;;;;1967848;73;21057;-76
2021/08/17 06:53:07;;;;;;;6.22;4.55;;;14.00;99.90;;;;;;1967841;73;21067;-76
2021/08/17 06:55:34;;;;;;;8.45;4.97;;;14.20;99.90;;;;;;1968021;73;21121;-76
2021/08/17 06:58:02;;;;;;;9.55;4.67;;;14.40;99.90;;;;;;1967921;73;21144;-77
2021/08/17 07:00:28;;;;;;;6.37;4.28;;;14.50;99.90;;;;;;1967921;73;21819;-77
2021/08/17 07:02:54;;;;;;;6.30;3.62;;;14.70;99.90;;;;;;1968012;73;21385;-75
2021/08/17 07:05:21;;;;;;;4.17;3.60;;;14.60;99.90;;;;;;1968044;73;21471;-74
2021/08/17 07:07:47;;;;;;;4.17;3.35;;;14.80;99.90;;;;;;1967891;73;21553;-75
2021/08/17 07:10:13;;;;;;;5.72;4.10;;;14.50;99.90;;;;;;1967944;73;21487;-76
2021/08/17 07:12:40;;;;;;;5.87;3.70;;;14.40;99.90;;;;;;1967996;73;21032;-76
2021/08/17 07:15:06;;;;;;;6.25;4.00;;;14.40;99.90;;;;;;1968114;73;21059;-76
2021/08/17 07:17:32;;;;;;;5.95;3.83;;;14.50;99.90;;;;;;1968051;73;21125;-75
2021/08/17 07:19:58;;;;;;;4.40;3.75;;;14.30;99.90;;;;;;1968018;73;21355;-75
2021/08/17 07:22:24;;;;;;;8.63;4.28;;;14.20;99.90;;;;;;1968041;73;21035;-75
2021/08/17 07:24:50;;;;;;;4.87;3.70;;;14.20;99.90;;;;;;1967971;73;21059;-75
2021/08/17 07:27:17;;;;;;;6.92;3.62;;;14.30;99.90;;;;;;1967798;73;21137;-76
2021/08/17 07:29:43;;;;;;;5.15;3.55;;;14.50;99.90;;;;;;1968053;73;21063;-76
2021/08/17 07:32:09;;;;;;;8.68;4.22;;;14.90;99.90;;;;;;1967842;73;21160;-76
2021/08/17 07:34:35;;;;;;;7.92;4.10;;;15.00;99.90;;;;;;1968186;73;21067;-76
2021/08/17 07:37:01;;;;;;;8.13;3.90;;;15.20;99.90;;;;;;1967896;73;21055;-76
2021/08/17 07:39:28;;;;;;;18.95;4.42;;;15.40;99.90;;;;;;1968137;73;21075;-75
2021/08/17 07:41:55;;;;;;;9.20;4.65;;;15.50;99.90;;;;;;1971305;72;21044;-76
2021/08/17 07:44:21;;;;;;;5.15;4.30;;;15.60;99.90;;;;;;1968095;73;21133;-75
2021/08/17 07:46:47;;;;;;;6.92;4.12;;;15.70;99.90;;;;;;1968122;73;21063;-75
2021/08/17 07:49:13;;;;;;;9.20;4.40;;;15.90;99.90;;;;;;1968169;73;21129;-76
2021/08/17 07:51:39;;;;;;;6.87;4.17;;;16.20;99.90;;;;;;1968227;73;21098;-74
2021/08/17 07:54:05;;;;;;;5.40;3.90;;;16.70;99.90;;;;;;1971571;71;21144;-75
2021/08/17 07:56:31;;;;;;;5.72;4.33;;;17.20;99.90;;;;;;1968045;73;21059;-74
2021/08/17 07:58:57;;;;;;;5.08;3.92;;;17.40;99.90;;;;;;1963755;72;21137;-76
2021/08/17 08:01:24;;;;;;;6.58;3.90;;;17.30;99.90;;;;;;1967945;73;21494;-75
2021/08/17 08:03:50;;;;;;;4.95;4.15;;;16.80;99.90;;;;;;1968135;73;21511;-75
2021/08/17 08:06:17;;;;;;;7.30;4.00;;;16.90;99.90;;;;;;1967903;73;21110;-76
2021/08/17 08:08:44;;;;;;;6.28;3.87;;;16.90;99.90;;;;;;1968145;73;21075;-75
2021/08/17 08:11:10;;;;;;;5.25;3.45;;;16.90;99.90;;;;;;1964337;73;21149;-76
2021/08/17 08:13:36;;;;;;;12.28;3.87;;;16.70;99.90;;;;;;1968075;73;21029;-75
2021/08/17 08:16:02;;;;;;;5.70;4.00;;;16.60;99.90;;;;;;1947200;73;21067;-74
2021/08/17 08:18:28;;;;;;;5.00;3.87;;;16.50;99.90;;;;;;1972719;72;21310;-74
2021/08/17 08:20:59;;;;;;;3.65;3.30;;;16.50;99.90;;;;;;1973560;72;21021;-73
2021/08/17 08:23:22;;;;;;;7.05;4.05;;;16.70;99.90;;;;;;1965956;73;21488;-73
2021/08/17 08:25:49;;;;;;;5.53;3.90;;;16.90;99.90;;;;;;1967993;73;21535;-73
2021/08/17 08:28:15;;;;;;;3.52;3.22;;;16.90;99.90;;;;;;1967981;73;21149;-73
2021/08/17 08:30:41;;;;;;;4.83;3.72;;;16.90;99.90;;;;;;1968133;73;21056;-73
2021/08/17 08:33:07;;;;;;;3.85;3.40;;;17.40;99.90;;;;;;1968106;73;21063;-73
2021/08/17 08:35:33;;;;;;;7.37;3.92;;;17.90;99.90;;;;;;1967976;73;21044;-73
2021/08/17 08:37:59;;;;;;;8.45;3.60;;;18.20;99.90;;;;;;1968076;73;21187;-73
2021/08/17 08:40:25;;;;;;;6.25;3.65;;;17.70;99.90;;;;;;1968081;73;21067;-73
2021/08/17 08:42:51;;;;;;;6.55;3.80;;;17.60;99.90;;;;;;1968126;73;21122;-73
2021/08/17 08:45:18;;;;;;;9.85;3.55;;;17.80;99.90;;;;;;1968117;73;21037;-73
2021/08/17 08:47:44;;;;;;;9.28;3.90;;;17.70;99.90;;;;;;1967975;73;21068;-73
2021/08/17 08:50:10;;;;;;;4.03;3.60;;;17.40;99.90;;;;;;1968106;73;21153;-73
2021/08/17 08:52:36;;;;;;;4.92;3.80;;;17.50;99.90;;;;;;1968000;73;21072;-73
2021/08/17 08:55:02;;;;;;;4.20;3.58;;;17.50;99.90;;;;;;1968075;73;21034;-73
2021/08/17 08:57:28;;;;;;;9.13;4.28;;;17.50;99.90;;;;;;1969842;71;21012;-74
2021/08/17 08:59:54;;;;;;;6.83;3.70;;;17.30;99.90;;;;;;1971646;71;21260;-73
2021/08/17 09:02:21;;;;;;;5.35;4.03;;;17.40;99.90;;;;;;1971197;71;21279;-74
2021/08/17 09:04:47;;;;;;;4.47;4.08;;;17.60;99.90;;;;;;1971872;71;21013;-74
2021/08/17 09:07:13;;;;;;;4.80;4.28;;;17.70;99.90;;;;;;1968569;73;21008;-74
2021/08/17 09:09:39;;;;;;;10.28;4.37;;;18.20;99.90;;;;;;1968182;73;21107;-74
2021/08/17 09:12:05;;;;;;;5.80;4.05;;;18.80;99.90;;;;;;1968222;73;21140;-74
2021/08/17 09:14:31;;;;;;;5.80;4.00;;;18.90;99.90;;;;;;1968288;73;21068;-74
2021/08/17 09:16:58;;;;;;;8.25;4.28;;;18.80;99.90;;;;;;1968558;73;21129;-74
2021/08/17 09:19:24;;;;;;;6.45;3.95;;;18.90;99.90;;;;;;1968830;73;21129;-76
2021/08/17 09:21:50;;;;;;;5.15;3.95;;;18.80;99.90;;;;;;1968951;73;21063;-75
2021/08/17 09:24:16;;;;;;;5.40;4.12;;;19.20;99.90;;;;;;1968828;73;21137;-76
2021/08/17 09:26:42;;;;;;;6.90;3.87;;;18.90;99.90;;;;;;1968838;73;21059;-75
2021/08/17 09:29:08;;;;;;;4.33;3.90;;;18.90;99.90;;;;;;1968747;73;21067;-75
2021/08/17 09:31:34;;;;;;;7.72;4.45;;;19.40;99.90;;;;;;1968692;73;21055;-76
2021/08/17 09:34:00;;;;;;;5.62;4.15;;;19.10;99.90;;;;;;1968624;73;21072;-75
2021/08/17 09:36:27;;;;;;;4.60;4.20;;;18.90;99.90;;;;;;1968683;73;21064;-76
2021/08/17 09:38:53;;;;;;;6.53;4.53;;;18.80;99.90;;;;;;1968678;73;21067;-75
2021/08/17 09:41:20;;;;;;;4.53;3.87;;;18.70;99.90;;;;;;1968610;73;21110;-76
2021/08/17 09:43:46;;;;;;;7.62;4.37;;;18.90;99.90;;;;;;1968791;73;21071;-77
2021/08/17 09:46:13;;;;;;;6.42;4.37;;;19.00;99.90;;;;;;1968636;73;21060;-76
2021/08/17 09:48:41;;;;;;;4.92;4.10;;;18.90;99.90;;;;;;1934064;74;21103;-76
2021/08/17 09:51:07;;;;;;;7.03;4.00;;;18.90;99.90;;;;;;1934124;74;21172;-73
2021/08/17 09:53:33;;;;;;;4.97;4.17;;;19.00;99.90;;;;;;1934041;74;21530;-76
2021/08/17 09:55:59;;;;;;;7.08;4.00;;;19.00;99.90;;;;;;1934111;74;21432;-76
2021/08/17 09:58:26;;;;;;;3.92;3.52;;;19.20;99.90;;;;;;1933970;74;21412;-76
2021/08/17 10:00:52;;;;;;;5.03;3.95;;;19.30;99.90;;;;;;1934110;74;21024;-76
2021/08/17 10:03:18;;;;;;;9.13;3.72;;;19.40;99.90;;;;;;1934156;74;21063;-76
2021/08/17 10:05:44;;;;;;;5.47;3.15;;;19.40;99.90;;;;;;1934104;74;21098;-76
2021/08/17 10:08:11;;;;;;;4.28;3.47;;;19.10;99.90;;;;;;1934247;74;21481;-76
2021/08/17 10:10:37;;;;;;;4.78;3.37;;;19.20;99.90;;;;;;1934156;74;21071;-76
2021/08/17 10:13:04;;;;;;;7.42;3.62;;;19.40;99.90;;;;;;1935194;74;21063;-73
2021/08/17 10:15:31;;;;;;;4.28;3.50;;;19.30;99.90;;;;;;1934888;74;21111;-79
2021/08/17 10:17:57;;;;;;;3.37;3.08;;;19.20;99.90;;;;;;1934707;74;21064;-80
2021/08/17 10:20:29;;;;;;;5.33;3.72;;;19.20;99.90;;;;;;1934273;74;21008;-79
2021/08/17 10:22:56;;;;;;;5.15;3.35;;;19.20;99.90;;;;;;1934192;74;21032;-79
2021/08/17 10:25:22;;;;;;;5.60;3.10;;;19.00;99.90;;;;;;1934213;74;21137;-79
2021/08/17 10:27:48;;;;;;;3.85;3.33;;;18.80;99.90;;;;;;1934107;74;21063;-79
2021/08/17 10:30:14;;;;;;;5.22;3.55;;;18.90;99.90;;;;;;1934303;74;21060;-79
2021/08/17 10:32:42;;;;;;;4.75;3.05;;;18.90;99.90;;;;;;1934177;74;21044;-79
2021/08/17 10:35:08;;;;;;;5.60;3.35;;;18.60;99.90;;;;;;1934301;74;21059;-78
2021/08/17 10:37:35;;;;;;;7.12;3.52;;;18.60;99.90;;;;;;1934192;74;21059;-79
2021/08/17 10:40:02;;;;;;;4.58;3.67;;;18.70;99.90;;;;;;1933648;74;21156;-79
2021/08/17 10:42:28;;;;;;;4.90;3.45;;;18.80;99.90;;;;;;1933552;74;21133;-79
2021/08/17 10:44:54;;;;;;;3.20;2.90;;;19.00;99.90;;;;;;1921798;74;21123;-80
2021/08/17 10:47:20;;;;;;;7.37;3.60;;;19.10;99.90;;;;;;1933410;74;21067;-78
2021/08/17 10:49:46;;;;;;;5.22;3.75;;;19.40;99.90;;;;;;1933385;74;21121;-78
2021/08/17 10:52:12;;;;;;;4.70;3.55;;;20.10;99.90;;;;;;1933565;74;21146;-79
2021/08/17 10:54:39;;;;;;;6.05;3.40;;;20.50;99.90;;;;;;1933482;74;21051;-78
2021/08/17 10:57:05;;;;;;;3.27;2.75;;;20.40;99.90;;;;;;1936474;72;21075;-79
2021/08/17 10:59:31;;;;;;;4.37;3.20;;;19.80;99.90;;;;;;1933435;74;21075;-76
2021/08/17 11:01:57;;;;;;;6.90;3.70;;;19.70;99.90;;;;;;1929538;74;21067;-76
2021/08/17 11:04:25;;;;;;;4.40;3.40;;;19.60;99.90;;;;;;1936152;73;21131;-76
2021/08/17 11:06:51;;;;;;;4.95;3.70;;;19.90;99.90;;;;;;1937391;73;21133;-76
2021/08/17 11:09:17;;;;;;;7.17;3.77;;;20.30;99.90;;;;;;1933575;74;21071;-76
2021/08/17 11:11:43;;;;;;;5.00;3.02;;;20.40;99.90;;;;;;1933612;74;21063;-77
2021/08/17 11:14:09;;;;;;;3.12;2.77;;;20.70;99.90;;;;;;1933673;74;21106;-76
2021/08/17 11:16:35;;;;;;;3.80;2.87;;;20.70;99.90;;;;;;1933483;74;21064;-76
2021/08/17 11:19:01;;;;;;;3.30;2.55;;;20.70;99.90;;;;;;1933549;74;21063;-76
2021/08/17 11:21:28;;;;;;;3.17;2.55;;;20.40;99.90;;;;;;1933723;74;21231;-76
2021/08/17 11:23:54;;;;;;;3.95;3.27;;;20.50;99.90;;;;;;1933452;74;21067;-76
2021/08/17 11:26:20;;;;;;;3.60;2.75;;;20.90;99.90;;;;;;1933643;74;21172;-76
2021/08/17 11:28:46;;;;;;;2.80;2.40;;;20.80;99.90;;;;;;1933396;74;21086;-75
2021/08/17 11:31:12;;;;;;;9.78;3.10;;;20.70;99.90;;;;;;1933616;74;21071;-75
2021/08/17 11:33:38;;;;;;;4.87;2.92;;;20.30;99.90;;;;;;1933450;74;21113;-75
2021/08/17 11:36:04;;;;;;;4.25;2.52;;;20.20;99.90;;;;;;1933614;74;21495;-75
2021/08/17 11:38:30;;;;;;;2.98;2.55;;;20.10;99.90;;;;;;1933612;74;21455;-76
2021/08/17 11:40:57;;;;;;;3.02;2.72;;;20.30;99.90;;;;;;1933523;74;21492;-76
2021/08/17 11:43:23;;;;;;;2.95;2.60;;;20.80;99.90;;;;;;1933405;74;21463;-75
2021/08/17 11:45:54;;;;;;;2.95;2.52;;;21.00;99.90;;;;;;1933618;74;21569;-75
2021/08/17 11:48:18;;;;;;;6.47;2.52;;;20.80;99.90;;;;;;1932762;74;21148;-75
2021/08/17 11:50:44;;;;;;;2.60;2.40;;;20.40;99.90;;;;;;1933577;74;21063;-75
2021/08/17 11:53:10;;;;;;;2.75;2.47;;;20.60;99.90;;;;;;1933809;74;21072;-75
2021/08/17 11:55:37;;;;;;;3.25;2.90;;;21.10;99.90;;;;;;1933683;74;21149;-75
2021/08/17 11:58:03;;;;;;;2.50;2.30;;;21.50;99.90;;;;;;1933733;74;21141;-75
2021/08/17 12:00:29;;;;;;;2.87;2.50;;;21.60;99.30;;;;;;1933773;74;21068;-76
2021/08/17 12:02:56;;;;;;;5.17;2.77;;;22.10;98.50;;;;;;1933681;74;21140;-75
2021/08/17 12:05:22;;;;;;;4.00;2.52;;;21.40;97.90;;;;;;1933598;74;21063;-75
2021/08/17 12:07:48;;;;;;;2.80;2.60;;;22.10;97.90;;;;;;1933374;74;21067;-76
2021/08/17 12:10:15;;;;;;;3.25;2.35;;;22.50;95.70;;;;;;1933768;74;21040;-75
2021/08/17 12:12:41;;;;;;;2.90;2.40;;;22.80;96.20;;;;;;1933402;74;21067;-76
2021/08/17 12:15:07;;;;;;;5.37;2.62;;;23.30;98.20;;;;;;1933596;74;21067;-76
2021/08/17 12:17:33;;;;;;;4.22;2.20;;;23.40;96.10;;;;;;1933524;74;21516;-76
2021/08/17 12:19:59;;;;;;;1.90;1.75;;;23.70;92.80;;;;;;1933500;74;21662;-76
2021/08/17 12:22:25;;;;;;;2.83;2.08;;;23.80;91.80;;;;;;1933468;74;21479;-75
2021/08/17 12:24:52;;;;;;;3.15;2.05;;;23.60;87.90;;;;;;1933514;74;21448;-76
2021/08/17 12:27:18;;;;;;;2.35;2.15;;;23.70;89.80;;;;;;1933407;74;21063;-76
2021/08/17 12:29:44;;;;;;;2.62;2.37;;;24.10;90.30;;;;;;1933608;74;21132;-76
2021/08/17 12:32:10;;;;;;;9.20;2.35;;;23.80;89.70;;;;;;1933592;74;21059;-76
2021/08/17 12:34:36;;;;;;;3.42;2.30;;;24.10;86.80;;;;;;1933787;74;21129;-76
2021/08/17 12:37:03;;;;;;;3.60;2.40;;;23.60;89.60;;;;;;1933745;74;21032;-76
2021/08/17 12:39:30;;;;;;;2.27;2.08;;;23.40;90.40;;;;;;1933891;74;21137;-76